sensor_id;sensor_type;location;lat;lon;timestamp;P1;durP1;ratioP1;P2;durP2;ratioP2
51560;SDS011;37654;51.262;17.058;2023-06-10T00:00:00;14.45;;;11.57;;
51560;SDS011;37654;51.262;17.058;2023-06-10T00:02:26;13.07;;;10.82;;
51560;SDS011;37654;51.262;17.058;2023-06-10T00:04:52;13.82;;;12.30;;
51560;SDS011;37654;51.262;17.058;2023-06-10T00:07:18;15.55;;;12.20;;
51560;SDS011;37654;51.262;17.058;2023-06-10T00:09:43;18.58;;;12.80;;
51560;SDS011;37654;51.262;17.058;2023-06-10T00:12:09;17.27;;;12.13;;
51560;SDS011;37654;51.262;17.058;2023-06-10T00:14:36;17.67;;;13.43;;
51560;SDS011;37654;51.262;17.058;2023-06-10T00:17:02;18.95;;;13.63;;
51560;SDS011;37654;51.262;17.058;2023-06-10T00:19:28;18.17;;;12.50;;
51560;SDS011;37654;51.262;17.058;2023-06-10T00:21:57;19.45;;;12.80;;
51560;SDS011;37654;51.262;17.058;2023-06-10T00:24:22;14.98;;;12.48;;
51560;SDS011;37654;51.262;17.058;2023-06-10T00:26:48;17.75;;;12.90;;
51560;SDS011;37654;51.262;17.058;2023-06-10T00:29:13;20.45;;;12.07;;
51560;SDS011;37654;51.262;17.058;2023-06-10T00:31:40;15.00;;;12.68;;
51560;SDS011;37654;51.262;17.058;2023-06-10T00:34:06;15.35;;;12.57;;
51560;SDS011;37654;51.262;17.058;2023-06-10T00:36:32;20.58;;;11.82;;
51560;SDS011;37654;51.262;17.058;2023-06-10T00:38:57;18.52;;;13.07;;
51560;SDS011;37654;51.262;17.058;2023-06-10T00:41:23;18.17;;;13.30;;
51560;SDS011;37654;51.262;17.058;2023-06-10T00:43:49;18.58;;;12.80;;
51560;SDS011;37654;51.262;17.058;2023-06-10T00:46:14;17.23;;;12.48;;
51560;SDS011;37654;51.262;17.058;2023-06-10T00:48:40;14.77;;;12.85;;
51560;SDS011;37654;51.262;17.058;2023-06-10T00:51:08;18.15;;;13.00;;
51560;SDS011;37654;51.262;17.058;2023-06-10T00:53:36;15.38;;;12.10;;
51560;SDS011;37654;51.262;17.058;2023-06-10T00:56:04;17.73;;;12.45;;
51560;SDS011;37654;51.262;17.058;2023-06-10T00:58:29;15.35;;;11.40;;
51560;SDS011;37654;51.262;17.058;2023-06-10T01:00:56;16.58;;;12.10;;
51560;SDS011;37654;51.262;17.058;2023-06-10T01:03:22;17.50;;;11.68;;
51560;SDS011;37654;51.262;17.058;2023-06-10T01:05:50;19.75;;;13.18;;
51560;SDS011;37654;51.262;17.058;2023-06-10T01:11:17;15.30;;;11.85;;
51560;SDS011;37654;51.262;17.058;2023-06-10T01:13:49;15.18;;;11.05;;
51560;SDS011;37654;51.262;17.058;2023-06-10T01:16:17;20.98;;;13.48;;
51560;SDS011;37654;51.262;17.058;2023-06-10T01:18:44;13.57;;;11.50;;
51560;SDS011;37654;51.262;17.058;2023-06-10T01:21:14;14.25;;;11.65;;
51560;SDS011;37654;51.262;17.058;2023-06-10T01:23:46;15.07;;;10.48;;
51560;SDS011;37654;51.262;17.058;2023-06-10T01:26:12;13.63;;;10.32;;
51560;SDS011;37654;51.262;17.058;2023-06-10T01:28:49;13.68;;;11.38;;
51560;SDS011;37654;51.262;17.058;2023-06-10T01:31:27;16.70;;;12.35;;
51560;SDS011;37654;51.262;17.058;2023-06-10T01:34:01;17.67;;;11.82;;
51560;SDS011;37654;51.262;17.058;2023-06-10T01:36:29;16.35;;;10.88;;
51560;SDS011;37654;51.262;17.058;2023-06-10T01:38:56;18.00;;;13.63;;
51560;SDS011;37654;51.262;17.058;2023-06-10T01:41:24;18.58;;;11.65;;
51560;SDS011;37654;51.262;17.058;2023-06-10T01:43:50;14.23;;;11.50;;
51560;SDS011;37654;51.262;17.058;2023-06-10T01:46:16;19.23;;;11.35;;
51560;SDS011;37654;51.262;17.058;2023-06-10T01:48:44;16.63;;;11.60;;
51560;SDS011;37654;51.262;17.058;2023-06-10T01:51:10;14.40;;;11.35;;
51560;SDS011;37654;51.262;17.058;2023-06-10T01:53:35;17.92;;;12.43;;
51560;SDS011;37654;51.262;17.058;2023-06-10T01:56:01;14.07;;;10.88;;
51560;SDS011;37654;51.262;17.058;2023-06-10T01:58:26;14.27;;;11.25;;
51560;SDS011;37654;51.262;17.058;2023-06-10T02:00:51;14.57;;;11.68;;
51560;SDS011;37654;51.262;17.058;2023-06-10T02:03:17;16.05;;;11.07;;
51560;SDS011;37654;51.262;17.058;2023-06-10T02:05:43;14.65;;;11.60;;
51560;SDS011;37654;51.262;17.058;2023-06-10T02:08:08;16.63;;;12.93;;
51560;SDS011;37654;51.262;17.058;2023-06-10T02:10:34;19.08;;;13.63;;
51560;SDS011;37654;51.262;17.058;2023-06-10T02:12:59;14.30;;;10.80;;
51560;SDS011;37654;51.262;17.058;2023-06-10T02:15:25;17.77;;;13.60;;
51560;SDS011;37654;51.262;17.058;2023-06-10T02:17:51;21.50;;;11.63;;
51560;SDS011;37654;51.262;17.058;2023-06-10T02:20:17;18.17;;;13.10;;
51560;SDS011;37654;51.262;17.058;2023-06-10T02:22:42;13.90;;;11.50;;
51560;SDS011;37654;51.262;17.058;2023-06-10T02:25:08;16.13;;;10.63;;
51560;SDS011;37654;51.262;17.058;2023-06-10T02:27:35;14.82;;;10.38;;
51560;SDS011;37654;51.262;17.058;2023-06-10T02:30:00;16.25;;;11.32;;
51560;SDS011;37654;51.262;17.058;2023-06-10T02:32:26;18.02;;;11.27;;
51560;SDS011;37654;51.262;17.058;2023-06-10T02:34:51;15.20;;;11.02;;
51560;SDS011;37654;51.262;17.058;2023-06-10T02:37:17;13.85;;;10.73;;
51560;SDS011;37654;51.262;17.058;2023-06-10T02:39:43;19.17;;;12.02;;
51560;SDS011;37654;51.262;17.058;2023-06-10T02:42:09;16.50;;;11.98;;
51560;SDS011;37654;51.262;17.058;2023-06-10T02:44:35;16.20;;;12.18;;
51560;SDS011;37654;51.262;17.058;2023-06-10T02:47:00;15.25;;;11.88;;
51560;SDS011;37654;51.262;17.058;2023-06-10T02:49:27;14.48;;;11.85;;
51560;SDS011;37654;51.262;17.058;2023-06-10T02:51:53;17.08;;;11.23;;
51560;SDS011;37654;51.262;17.058;2023-06-10T02:54:19;18.00;;;12.23;;
51560;SDS011;37654;51.262;17.058;2023-06-10T02:56:45;15.82;;;12.55;;
51560;SDS011;37654;51.262;17.058;2023-06-10T02:59:12;18.00;;;11.05;;
51560;SDS011;37654;51.262;17.058;2023-06-10T03:01:38;14.77;;;11.52;;
51560;SDS011;37654;51.262;17.058;2023-06-10T03:04:04;17.48;;;11.65;;
51560;SDS011;37654;51.262;17.058;2023-06-10T03:06:30;16.20;;;10.98;;
51560;SDS011;37654;51.262;17.058;2023-06-10T03:08:58;18.67;;;11.43;;
51560;SDS011;37654;51.262;17.058;2023-06-10T03:11:24;13.57;;;10.77;;
51560;SDS011;37654;51.262;17.058;2023-06-10T03:13:51;16.85;;;11.32;;
51560;SDS011;37654;51.262;17.058;2023-06-10T03:16:17;15.13;;;11.00;;
51560;SDS011;37654;51.262;17.058;2023-06-10T03:18:43;19.52;;;11.95;;
51560;SDS011;37654;51.262;17.058;2023-06-10T03:21:08;21.73;;;12.57;;
51560;SDS011;37654;51.262;17.058;2023-06-10T03:23:34;16.30;;;13.40;;
51560;SDS011;37654;51.262;17.058;2023-06-10T03:25:59;15.13;;;12.88;;
51560;SDS011;37654;51.262;17.058;2023-06-10T03:28:25;17.40;;;12.00;;
51560;SDS011;37654;51.262;17.058;2023-06-10T03:30:51;16.77;;;12.85;;
51560;SDS011;37654;51.262;17.058;2023-06-10T03:33:16;19.30;;;12.13;;
51560;SDS011;37654;51.262;17.058;2023-06-10T03:35:42;18.52;;;12.60;;
51560;SDS011;37654;51.262;17.058;2023-06-10T03:38:07;18.50;;;12.15;;
51560;SDS011;37654;51.262;17.058;2023-06-10T03:40:33;18.40;;;12.20;;
51560;SDS011;37654;51.262;17.058;2023-06-10T03:42:59;14.07;;;12.00;;
51560;SDS011;37654;51.262;17.058;2023-06-10T03:45:25;18.65;;;13.40;;
51560;SDS011;37654;51.262;17.058;2023-06-10T03:47:53;18.10;;;13.38;;
51560;SDS011;37654;51.262;17.058;2023-06-10T03:50:19;18.73;;;13.68;;
51560;SDS011;37654;51.262;17.058;2023-06-10T03:52:44;16.83;;;13.20;;
51560;SDS011;37654;51.262;17.058;2023-06-10T03:55:10;18.73;;;14.25;;
51560;SDS011;37654;51.262;17.058;2023-06-10T03:57:38;18.75;;;13.35;;
51560;SDS011;37654;51.262;17.058;2023-06-10T04:00:04;20.48;;;13.68;;
51560;SDS011;37654;51.262;17.058;2023-06-10T04:02:37;20.30;;;13.07;;
51560;SDS011;37654;51.262;17.058;2023-06-10T04:05:06;19.52;;;13.75;;
51560;SDS011;37654;51.262;17.058;2023-06-10T04:07:32;18.02;;;14.15;;
51560;SDS011;37654;51.262;17.058;2023-06-10T04:09:59;19.52;;;13.77;;
51560;SDS011;37654;51.262;17.058;2023-06-10T04:12:24;20.40;;;14.38;;
51560;SDS011;37654;51.262;17.058;2023-06-10T04:14:50;19.73;;;15.07;;
51560;SDS011;37654;51.262;17.058;2023-06-10T04:17:16;19.50;;;15.05;;
51560;SDS011;37654;51.262;17.058;2023-06-10T04:19:41;21.02;;;15.25;;
51560;SDS011;37654;51.262;17.058;2023-06-10T04:22:07;21.42;;;14.55;;
51560;SDS011;37654;51.262;17.058;2023-06-10T04:24:32;19.08;;;15.70;;
51560;SDS011;37654;51.262;17.058;2023-06-10T04:26:58;20.70;;;15.68;;
51560;SDS011;37654;51.262;17.058;2023-06-10T04:29:23;19.95;;;14.90;;
51560;SDS011;37654;51.262;17.058;2023-06-10T04:31:49;21.75;;;14.93;;
51560;SDS011;37654;51.262;17.058;2023-06-10T04:34:14;21.80;;;17.35;;
51560;SDS011;37654;51.262;17.058;2023-06-10T04:36:40;22.30;;;15.02;;
51560;SDS011;37654;51.262;17.058;2023-06-10T04:39:06;20.75;;;13.88;;
51560;SDS011;37654;51.262;17.058;2023-06-10T04:41:31;21.05;;;15.32;;
51560;SDS011;37654;51.262;17.058;2023-06-10T04:43:56;20.10;;;14.77;;
51560;SDS011;37654;51.262;17.058;2023-06-10T04:46:23;20.92;;;13.93;;
51560;SDS011;37654;51.262;17.058;2023-06-10T04:48:49;22.40;;;15.07;;
51560;SDS011;37654;51.262;17.058;2023-06-10T04:51:15;16.88;;;13.38;;
51560;SDS011;37654;51.262;17.058;2023-06-10T04:53:40;21.52;;;13.80;;
51560;SDS011;37654;51.262;17.058;2023-06-10T04:56:06;18.25;;;13.68;;
51560;SDS011;37654;51.262;17.058;2023-06-10T04:58:32;20.25;;;16.02;;
51560;SDS011;37654;51.262;17.058;2023-06-10T05:00:58;22.83;;;16.90;;
51560;SDS011;37654;51.262;17.058;2023-06-10T05:03:24;21.98;;;16.30;;
51560;SDS011;37654;51.262;17.058;2023-06-10T05:05:50;25.20;;;16.58;;
51560;SDS011;37654;51.262;17.058;2023-06-10T05:08:16;32.25;;;22.17;;
51560;SDS011;37654;51.262;17.058;2023-06-10T05:10:41;32.95;;;18.63;;
51560;SDS011;37654;51.262;17.058;2023-06-10T05:13:06;21.23;;;16.38;;
51560;SDS011;37654;51.262;17.058;2023-06-10T05:15:32;20.27;;;16.33;;
51560;SDS011;37654;51.262;17.058;2023-06-10T05:17:58;23.80;;;15.50;;
51560;SDS011;37654;51.262;17.058;2023-06-10T05:20:23;19.27;;;15.77;;
51560;SDS011;37654;51.262;17.058;2023-06-10T05:22:50;20.45;;;14.63;;
51560;SDS011;37654;51.262;17.058;2023-06-10T05:25:15;26.13;;;17.08;;
51560;SDS011;37654;51.262;17.058;2023-06-10T05:27:41;21.70;;;16.40;;
51560;SDS011;37654;51.262;17.058;2023-06-10T05:30:08;20.58;;;16.23;;
51560;SDS011;37654;51.262;17.058;2023-06-10T05:32:35;21.35;;;16.30;;
51560;SDS011;37654;51.262;17.058;2023-06-10T05:35:00;21.02;;;15.00;;
51560;SDS011;37654;51.262;17.058;2023-06-10T05:37:26;20.15;;;15.32;;
51560;SDS011;37654;51.262;17.058;2023-06-10T05:39:52;19.20;;;13.88;;
51560;SDS011;37654;51.262;17.058;2023-06-10T05:42:17;19.33;;;14.65;;
51560;SDS011;37654;51.262;17.058;2023-06-10T05:44:43;26.95;;;15.65;;
51560;SDS011;37654;51.262;17.058;2023-06-10T05:47:08;19.70;;;15.32;;
51560;SDS011;37654;51.262;17.058;2023-06-10T05:49:34;19.27;;;15.75;;
51560;SDS011;37654;51.262;17.058;2023-06-10T05:52:00;22.80;;;16.50;;
51560;SDS011;37654;51.262;17.058;2023-06-10T05:54:25;19.70;;;16.52;;
51560;SDS011;37654;51.262;17.058;2023-06-10T05:56:51;24.77;;;18.00;;
51560;SDS011;37654;51.262;17.058;2023-06-10T05:59:17;20.98;;;16.10;;
51560;SDS011;37654;51.262;17.058;2023-06-10T06:01:42;28.08;;;17.75;;
51560;SDS011;37654;51.262;17.058;2023-06-10T06:04:08;17.80;;;15.43;;
51560;SDS011;37654;51.262;17.058;2023-06-10T06:06:34;21.35;;;16.75;;
51560;SDS011;37654;51.262;17.058;2023-06-10T06:09:00;21.70;;;15.82;;
51560;SDS011;37654;51.262;17.058;2023-06-10T06:11:26;19.63;;;17.15;;
51560;SDS011;37654;51.262;17.058;2023-06-10T06:13:51;22.13;;;16.33;;
51560;SDS011;37654;51.262;17.058;2023-06-10T06:16:16;21.60;;;15.40;;
51560;SDS011;37654;51.262;17.058;2023-06-10T06:18:43;20.13;;;15.45;;
51560;SDS011;37654;51.262;17.058;2023-06-10T06:21:09;20.58;;;15.13;;
51560;SDS011;37654;51.262;17.058;2023-06-10T06:23:34;21.63;;;15.73;;
51560;SDS011;37654;51.262;17.058;2023-06-10T06:26:00;18.77;;;15.05;;
51560;SDS011;37654;51.262;17.058;2023-06-10T06:28:25;20.25;;;15.05;;
51560;SDS011;37654;51.262;17.058;2023-06-10T06:30:54;23.35;;;16.33;;
51560;SDS011;37654;51.262;17.058;2023-06-10T06:33:22;19.83;;;15.40;;
51560;SDS011;37654;51.262;17.058;2023-06-10T06:35:48;22.75;;;17.02;;
51560;SDS011;37654;51.262;17.058;2023-06-10T06:38:14;18.23;;;15.48;;
51560;SDS011;37654;51.262;17.058;2023-06-10T06:40:39;22.45;;;16.92;;
51560;SDS011;37654;51.262;17.058;2023-06-10T06:43:05;19.10;;;15.45;;
51560;SDS011;37654;51.262;17.058;2023-06-10T06:45:30;19.10;;;14.75;;
51560;SDS011;37654;51.262;17.058;2023-06-10T06:47:56;20.13;;;14.07;;
51560;SDS011;37654;51.262;17.058;2023-06-10T06:50:21;19.75;;;15.68;;
51560;SDS011;37654;51.262;17.058;2023-06-10T06:52:47;18.35;;;14.32;;
51560;SDS011;37654;51.262;17.058;2023-06-10T06:55:12;18.83;;;14.18;;
51560;SDS011;37654;51.262;17.058;2023-06-10T06:57:38;17.92;;;14.75;;
51560;SDS011;37654;51.262;17.058;2023-06-10T07:00:03;19.83;;;13.63;;
51560;SDS011;37654;51.262;17.058;2023-06-10T07:02:30;18.80;;;13.73;;
51560;SDS011;37654;51.262;17.058;2023-06-10T07:04:57;15.55;;;11.88;;
51560;SDS011;37654;51.262;17.058;2023-06-10T07:07:23;18.13;;;11.75;;
51560;SDS011;37654;51.262;17.058;2023-06-10T07:09:49;14.77;;;12.20;;
51560;SDS011;37654;51.262;17.058;2023-06-10T07:12:15;16.25;;;13.30;;
51560;SDS011;37654;51.262;17.058;2023-06-10T07:14:40;16.85;;;13.30;;
51560;SDS011;37654;51.262;17.058;2023-06-10T07:17:06;15.02;;;13.32;;
51560;SDS011;37654;51.262;17.058;2023-06-10T07:19:31;17.00;;;13.02;;
51560;SDS011;37654;51.262;17.058;2023-06-10T07:21:56;18.92;;;14.27;;
51560;SDS011;37654;51.262;17.058;2023-06-10T07:24:22;14.38;;;12.88;;
51560;SDS011;37654;51.262;17.058;2023-06-10T07:26:47;16.25;;;14.45;;
51560;SDS011;37654;51.262;17.058;2023-06-10T07:29:13;16.85;;;14.50;;
51560;SDS011;37654;51.262;17.058;2023-06-10T07:31:38;14.48;;;12.45;;
51560;SDS011;37654;51.262;17.058;2023-06-10T07:34:03;14.98;;;12.00;;
51560;SDS011;37654;51.262;17.058;2023-06-10T07:36:29;17.98;;;12.52;;
51560;SDS011;37654;51.262;17.058;2023-06-10T07:38:55;18.02;;;11.85;;
51560;SDS011;37654;51.262;17.058;2023-06-10T07:41:22;14.05;;;12.57;;
51560;SDS011;37654;51.262;17.058;2023-06-10T07:43:49;17.92;;;13.80;;
51560;SDS011;37654;51.262;17.058;2023-06-10T07:46:19;16.45;;;14.75;;
51560;SDS011;37654;51.262;17.058;2023-06-10T07:48:45;18.45;;;14.82;;
51560;SDS011;37654;51.262;17.058;2023-06-10T07:51:10;17.20;;;13.15;;
51560;SDS011;37654;51.262;17.058;2023-06-10T07:53:36;15.35;;;13.35;;
51560;SDS011;37654;51.262;17.058;2023-06-10T07:56:01;19.65;;;14.45;;
51560;SDS011;37654;51.262;17.058;2023-06-10T07:58:26;18.48;;;15.00;;
51560;SDS011;37654;51.262;17.058;2023-06-10T08:00:52;15.82;;;14.05;;
51560;SDS011;37654;51.262;17.058;2023-06-10T08:03:19;17.80;;;14.82;;
51560;SDS011;37654;51.262;17.058;2023-06-10T08:05:44;15.68;;;13.80;;
51560;SDS011;37654;51.262;17.058;2023-06-10T08:08:10;19.73;;;13.85;;
51560;SDS011;37654;51.262;17.058;2023-06-10T08:10:35;14.60;;;13.00;;
51560;SDS011;37654;51.262;17.058;2023-06-10T08:13:01;13.73;;;12.27;;
51560;SDS011;37654;51.262;17.058;2023-06-10T08:15:26;12.77;;;11.38;;
51560;SDS011;37654;51.262;17.058;2023-06-10T08:17:51;9.02;;;8.13;;
51560;SDS011;37654;51.262;17.058;2023-06-10T08:20:17;12.95;;;10.18;;
51560;SDS011;37654;51.262;17.058;2023-06-10T08:22:43;11.95;;;9.73;;
51560;SDS011;37654;51.262;17.058;2023-06-10T08:25:09;14.43;;;10.13;;
51560;SDS011;37654;51.262;17.058;2023-06-10T08:27:35;10.45;;;7.10;;
51560;SDS011;37654;51.262;17.058;2023-06-10T08:30:00;8.02;;;7.22;;
51560;SDS011;37654;51.262;17.058;2023-06-10T08:32:26;11.38;;;8.27;;
51560;SDS011;37654;51.262;17.058;2023-06-10T08:34:51;10.38;;;9.15;;
51560;SDS011;37654;51.262;17.058;2023-06-10T08:37:17;12.43;;;11.23;;
51560;SDS011;37654;51.262;17.058;2023-06-10T08:39:42;13.77;;;11.93;;
51560;SDS011;37654;51.262;17.058;2023-06-10T08:42:14;15.45;;;11.80;;
51560;SDS011;37654;51.262;17.058;2023-06-10T08:44:42;14.02;;;12.52;;
51560;SDS011;37654;51.262;17.058;2023-06-10T08:47:16;12.10;;;10.20;;
51560;SDS011;37654;51.262;17.058;2023-06-10T08:49:45;13.02;;;11.73;;
51560;SDS011;37654;51.262;17.058;2023-06-10T08:52:18;11.02;;;9.77;;
51560;SDS011;37654;51.262;17.058;2023-06-10T08:54:56;13.48;;;9.88;;
51560;SDS011;37654;51.262;17.058;2023-06-10T08:57:24;12.35;;;10.73;;
51560;SDS011;37654;51.262;17.058;2023-06-10T08:59:50;12.18;;;9.63;;
51560;SDS011;37654;51.262;17.058;2023-06-10T09:02:17;13.80;;;11.13;;
51560;SDS011;37654;51.262;17.058;2023-06-10T09:04:44;11.73;;;10.57;;
51560;SDS011;37654;51.262;17.058;2023-06-10T09:07:12;14.18;;;10.23;;
51560;SDS011;37654;51.262;17.058;2023-06-10T09:09:39;11.30;;;9.77;;
51560;SDS011;37654;51.262;17.058;2023-06-10T09:12:06;10.85;;;9.82;;
51560;SDS011;37654;51.262;17.058;2023-06-10T09:14:32;11.38;;;10.27;;
51560;SDS011;37654;51.262;17.058;2023-06-10T09:16:58;13.33;;;8.97;;
51560;SDS011;37654;51.262;17.058;2023-06-10T09:19:24;9.95;;;8.65;;
51560;SDS011;37654;51.262;17.058;2023-06-10T09:21:51;12.63;;;7.57;;
51560;SDS011;37654;51.262;17.058;2023-06-10T09:24:16;9.23;;;8.13;;
51560;SDS011;37654;51.262;17.058;2023-06-10T09:26:43;10.10;;;7.78;;
51560;SDS011;37654;51.262;17.058;2023-06-10T09:29:09;8.65;;;7.40;;
51560;SDS011;37654;51.262;17.058;2023-06-10T09:31:36;7.85;;;7.05;;
51560;SDS011;37654;51.262;17.058;2023-06-10T09:34:05;7.63;;;6.93;;
51560;SDS011;37654;51.262;17.058;2023-06-10T09:36:34;8.15;;;7.28;;
51560;SDS011;37654;51.262;17.058;2023-06-10T09:39:00;7.50;;;6.65;;
51560;SDS011;37654;51.262;17.058;2023-06-10T09:41:32;7.40;;;6.45;;
51560;SDS011;37654;51.262;17.058;2023-06-10T09:44:09;11.88;;;6.82;;
51560;SDS011;37654;51.262;17.058;2023-06-10T09:49:02;7.83;;;6.40;;
51560;SDS011;37654;51.262;17.058;2023-06-10T09:51:28;9.43;;;5.47;;
51560;SDS011;37654;51.262;17.058;2023-06-10T09:53:54;8.37;;;5.53;;
51560;SDS011;37654;51.262;17.058;2023-06-10T09:56:19;5.88;;;5.30;;
51560;SDS011;37654;51.262;17.058;2023-06-10T09:58:45;7.22;;;5.20;;
51560;SDS011;37654;51.262;17.058;2023-06-10T10:01:12;5.50;;;5.00;;
51560;SDS011;37654;51.262;17.058;2023-06-10T10:06:19;6.38;;;5.13;;
51560;SDS011;37654;51.262;17.058;2023-06-10T10:08:46;8.70;;;5.22;;
51560;SDS011;37654;51.262;17.058;2023-06-10T10:11:14;7.18;;;5.28;;
51560;SDS011;37654;51.262;17.058;2023-06-10T10:13:42;5.18;;;4.78;;
51560;SDS011;37654;51.262;17.058;2023-06-10T10:16:11;6.32;;;5.40;;
51560;SDS011;37654;51.262;17.058;2023-06-10T10:18:41;7.65;;;4.78;;
51560;SDS011;37654;51.262;17.058;2023-06-10T10:21:13;6.28;;;4.93;;
51560;SDS011;37654;51.262;17.058;2023-06-10T10:26:09;6.45;;;3.78;;
51560;SDS011;37654;51.262;17.058;2023-06-10T10:28:41;7.07;;;4.50;;
51560;SDS011;37654;51.262;17.058;2023-06-10T10:31:10;5.45;;;4.45;;
51560;SDS011;37654;51.262;17.058;2023-06-10T10:33:40;6.40;;;4.45;;
51560;SDS011;37654;51.262;17.058;2023-06-10T10:36:13;6.68;;;4.32;;
51560;SDS011;37654;51.262;17.058;2023-06-10T10:38:40;8.90;;;4.75;;
51560;SDS011;37654;51.262;17.058;2023-06-10T10:41:06;9.70;;;4.47;;
51560;SDS011;37654;51.262;17.058;2023-06-10T10:43:32;5.95;;;4.30;;
51560;SDS011;37654;51.262;17.058;2023-06-10T10:45:59;11.23;;;4.20;;
51560;SDS011;37654;51.262;17.058;2023-06-10T10:48:25;6.78;;;4.13;;
51560;SDS011;37654;51.262;17.058;2023-06-10T10:50:57;8.20;;;4.07;;
51560;SDS011;37654;51.262;17.058;2023-06-10T10:53:23;10.75;;;4.90;;
51560;SDS011;37654;51.262;17.058;2023-06-10T10:58:38;7.57;;;4.00;;
51560;SDS011;37654;51.262;17.058;2023-06-10T11:01:13;6.90;;;4.20;;
51560;SDS011;37654;51.262;17.058;2023-06-10T11:03:46;6.78;;;4.50;;
51560;SDS011;37654;51.262;17.058;2023-06-10T11:06:15;8.43;;;4.30;;
51560;SDS011;37654;51.262;17.058;2023-06-10T11:13:57;7.00;;;4.53;;
51560;SDS011;37654;51.262;17.058;2023-06-10T11:16:26;10.05;;;5.05;;
51560;SDS011;37654;51.262;17.058;2023-06-10T11:18:56;12.27;;;5.07;;
51560;SDS011;37654;51.262;17.058;2023-06-10T11:21:24;6.15;;;4.47;;
51560;SDS011;37654;51.262;17.058;2023-06-10T11:23:50;6.10;;;3.80;;
51560;SDS011;37654;51.262;17.058;2023-06-10T11:36:21;5.93;;;4.68;;
51560;SDS011;37654;51.262;17.058;2023-06-10T11:38:47;13.30;;;5.25;;
51560;SDS011;37654;51.262;17.058;2023-06-10T11:41:14;8.15;;;4.53;;
51560;SDS011;37654;51.262;17.058;2023-06-10T11:43:43;8.52;;;3.85;;
51560;SDS011;37654;51.262;17.058;2023-06-10T11:46:10;10.88;;;4.18;;
51560;SDS011;37654;51.262;17.058;2023-06-10T11:48:36;8.85;;;4.35;;
51560;SDS011;37654;51.262;17.058;2023-06-10T11:51:05;7.07;;;4.25;;
51560;SDS011;37654;51.262;17.058;2023-06-10T11:53:34;9.88;;;4.25;;
51560;SDS011;37654;51.262;17.058;2023-06-10T11:56:00;8.98;;;4.05;;
51560;SDS011;37654;51.262;17.058;2023-06-10T11:58:26;9.68;;;4.55;;
51560;SDS011;37654;51.262;17.058;2023-06-10T12:00:52;6.15;;;4.20;;
51560;SDS011;37654;51.262;17.058;2023-06-10T12:03:19;7.05;;;4.18;;
51560;SDS011;37654;51.262;17.058;2023-06-10T12:05:56;5.70;;;3.85;;
51560;SDS011;37654;51.262;17.058;2023-06-10T12:08:26;6.53;;;4.05;;
51560;SDS011;37654;51.262;17.058;2023-06-10T12:10:55;5.70;;;3.92;;
51560;SDS011;37654;51.262;17.058;2023-06-10T12:13:21;8.65;;;4.20;;
51560;SDS011;37654;51.262;17.058;2023-06-10T12:15:48;10.80;;;4.65;;
51560;SDS011;37654;51.262;17.058;2023-06-10T12:18:18;6.47;;;4.10;;
51560;SDS011;37654;51.262;17.058;2023-06-10T12:20:47;5.72;;;3.97;;
51560;SDS011;37654;51.262;17.058;2023-06-10T12:23:14;5.78;;;3.60;;
51560;SDS011;37654;51.262;17.058;2023-06-10T12:25:49;11.88;;;4.35;;
51560;SDS011;37654;51.262;17.058;2023-06-10T12:28:16;13.05;;;4.30;;
51560;SDS011;37654;51.262;17.058;2023-06-10T12:30:45;5.32;;;3.85;;
51560;SDS011;37654;51.262;17.058;2023-06-10T12:33:17;9.55;;;3.83;;
51560;SDS011;37654;51.262;17.058;2023-06-10T12:35:51;7.43;;;4.47;;
51560;SDS011;37654;51.262;17.058;2023-06-10T12:38:24;15.55;;;4.00;;
51560;SDS011;37654;51.262;17.058;2023-06-10T12:40:54;6.32;;;4.13;;
51560;SDS011;37654;51.262;17.058;2023-06-10T12:43:22;8.65;;;3.92;;
51560;SDS011;37654;51.262;17.058;2023-06-10T12:45:48;5.82;;;3.95;;
51560;SDS011;37654;51.262;17.058;2023-06-10T12:48:18;4.85;;;3.58;;
51560;SDS011;37654;51.262;17.058;2023-06-10T12:50:52;6.88;;;3.72;;
51560;SDS011;37654;51.262;17.058;2023-06-10T12:53:19;4.82;;;3.88;;
51560;SDS011;37654;51.262;17.058;2023-06-10T12:55:46;7.35;;;4.00;;
51560;SDS011;37654;51.262;17.058;2023-06-10T12:58:12;7.50;;;3.75;;
51560;SDS011;37654;51.262;17.058;2023-06-10T13:00:38;9.77;;;4.15;;
51560;SDS011;37654;51.262;17.058;2023-06-10T13:03:04;7.53;;;4.13;;
51560;SDS011;37654;51.262;17.058;2023-06-10T13:05:30;7.03;;;3.30;;
51560;SDS011;37654;51.262;17.058;2023-06-10T13:07:57;6.15;;;3.67;;
51560;SDS011;37654;51.262;17.058;2023-06-10T13:10:22;7.15;;;3.92;;
51560;SDS011;37654;51.262;17.058;2023-06-10T13:12:48;7.63;;;3.90;;
51560;SDS011;37654;51.262;17.058;2023-06-10T13:15:14;7.30;;;3.83;;
51560;SDS011;37654;51.262;17.058;2023-06-10T13:17:40;5.70;;;3.47;;
51560;SDS011;37654;51.262;17.058;2023-06-10T13:20:07;7.68;;;3.30;;
51560;SDS011;37654;51.262;17.058;2023-06-10T13:22:33;8.77;;;3.88;;
51560;SDS011;37654;51.262;17.058;2023-06-10T13:25:02;5.22;;;3.40;;
51560;SDS011;37654;51.262;17.058;2023-06-10T13:27:28;12.25;;;3.88;;
51560;SDS011;37654;51.262;17.058;2023-06-10T13:29:54;10.23;;;3.97;;
51560;SDS011;37654;51.262;17.058;2023-06-10T13:32:19;5.43;;;2.92;;
51560;SDS011;37654;51.262;17.058;2023-06-10T13:34:45;4.93;;;3.40;;
51560;SDS011;37654;51.262;17.058;2023-06-10T13:37:11;7.47;;;3.47;;
51560;SDS011;37654;51.262;17.058;2023-06-10T13:39:37;9.48;;;3.97;;
51560;SDS011;37654;51.262;17.058;2023-06-10T13:42:03;8.13;;;3.60;;
51560;SDS011;37654;51.262;17.058;2023-06-10T13:44:29;8.13;;;3.78;;
51560;SDS011;37654;51.262;17.058;2023-06-10T13:46:58;8.30;;;3.78;;
51560;SDS011;37654;51.262;17.058;2023-06-10T13:49:24;5.85;;;3.63;;
51560;SDS011;37654;51.262;17.058;2023-06-10T13:51:50;12.73;;;3.92;;
51560;SDS011;37654;51.262;17.058;2023-06-10T13:54:15;8.95;;;3.88;;
51560;SDS011;37654;51.262;17.058;2023-06-10T13:56:40;5.70;;;3.35;;
51560;SDS011;37654;51.262;17.058;2023-06-10T13:59:06;18.95;;;4.43;;
51560;SDS011;37654;51.262;17.058;2023-06-10T14:01:31;5.13;;;3.17;;
51560;SDS011;37654;51.262;17.058;2023-06-10T14:03:57;5.90;;;3.35;;
51560;SDS011;37654;51.262;17.058;2023-06-10T14:06:22;9.77;;;3.45;;
51560;SDS011;37654;51.262;17.058;2023-06-10T14:08:48;7.60;;;3.90;;
51560;SDS011;37654;51.262;17.058;2023-06-10T14:11:13;8.57;;;3.53;;
51560;SDS011;37654;51.262;17.058;2023-06-10T14:13:39;8.18;;;3.92;;
51560;SDS011;37654;51.262;17.058;2023-06-10T14:16:05;6.88;;;3.50;;
51560;SDS011;37654;51.262;17.058;2023-06-10T14:18:30;5.22;;;3.58;;
51560;SDS011;37654;51.262;17.058;2023-06-10T14:20:56;4.40;;;3.22;;
51560;SDS011;37654;51.262;17.058;2023-06-10T14:23:21;7.15;;;3.83;;
51560;SDS011;37654;51.262;17.058;2023-06-10T14:25:47;6.30;;;3.35;;
51560;SDS011;37654;51.262;17.058;2023-06-10T14:28:12;5.43;;;3.40;;
51560;SDS011;37654;51.262;17.058;2023-06-10T14:30:37;5.15;;;3.50;;
51560;SDS011;37654;51.262;17.058;2023-06-10T14:33:03;7.95;;;3.83;;
51560;SDS011;37654;51.262;17.058;2023-06-10T14:35:28;8.63;;;3.67;;
51560;SDS011;37654;51.262;17.058;2023-06-10T14:37:54;8.32;;;3.70;;
51560;SDS011;37654;51.262;17.058;2023-06-10T14:40:19;6.45;;;3.38;;
51560;SDS011;37654;51.262;17.058;2023-06-10T14:42:47;5.70;;;3.53;;